Time;durP1;ratioP1;P1;durP2;ratioP2;P2;SDS_P1;SDS_P2;PMS_P1;PMS_P2;Temp;Humidity;BMP_temperature;BMP_pressure;BME280_temperature;BME280_humidity;BME280_pressure;Samples;Min_cycle;Max_cycle;Signal;HPM_P1;HPM_P2
2023/06/07 00:00:10;;;;;;;7.97;4.23;;;;;;;19.02;62.07;101141.69;5008849;28;20213;-85
2023/06/07 00:02:38;;;;;;;8.07;4.13;;;;;;;19.00;62.14;101140.13;5014443;28;20244;-86
2023/06/07 00:05:05;;;;;;;5.80;3.97;;;;;;;18.99;62.09;101135.72;5012334;28;20217;-85
2023/06/07 00:07:32;;;;;;;4.00;3.53;;;;;;;18.96;62.24;101142.25;5012675;28;20224;-85
2023/06/07 00:09:59;;;;;;;8.17;3.80;;;;;;;18.92;62.33;101142.66;5009957;28;20201;-85
2023/06/07 00:12:27;;;;;;;8.27;4.10;;;;;;;18.90;62.56;101147.34;4996136;28;20799;-85
2023/06/07 00:14:54;;;;;;;6.23;4.30;;;;;;;18.87;62.46;101145.78;5016092;28;20209;-85
2023/06/07 00:17:20;;;;;;;4.70;3.87;;;;;;;18.85;62.75;101139.66;5005864;28;20214;-85
2023/06/07 00:19:47;;;;;;;4.67;4.10;;;;;;;18.85;62.85;101130.72;5011113;28;20209;-84
2023/06/07 00:22:14;;;;;;;7.20;4.20;;;;;;;18.83;62.96;101143.50;5001650;28;20231;-85
2023/06/07 00:24:40;;;;;;;7.30;4.70;;;;;;;18.81;63.06;101146.31;5011979;28;20207;-86
2023/06/07 00:27:07;;;;;;;7.13;4.03;;;;;;;18.80;63.27;101150.03;5008622;28;20216;-85
2023/06/07 00:29:34;;;;;;;6.53;4.83;;;;;;;18.79;63.25;101137.53;5011183;28;20216;-85
2023/06/07 00:32:02;;;;;;;7.43;4.30;;;;;;;18.77;63.35;101147.63;5014282;28;20210;-85
2023/06/07 00:34:28;;;;;;;8.83;4.73;;;;;;;18.77;63.44;101144.06;5020636;28;20237;-86
2023/06/07 00:36:55;;;;;;;7.93;4.77;;;;;;;18.74;63.26;101145.19;5011699;28;20227;-85
2023/06/07 00:39:22;;;;;;;5.90;4.20;;;;;;;18.73;63.25;101149.72;5001241;28;20606;-85
2023/06/07 00:41:48;;;;;;;5.40;4.20;;;;;;;18.70;63.29;101141.06;5012103;28;20583;-86
2023/06/07 00:44:16;;;;;;;5.53;3.80;;;;;;;18.67;63.47;101142.16;5006306;28;20849;-85
2023/06/07 00:46:44;;;;;;;5.50;3.67;;;;;;;18.66;63.71;101150.41;5008987;28;20207;-86
2023/06/07 00:49:16;;;;;;;5.20;4.27;;;;;;;18.64;63.87;101149.69;5002994;28;20202;-86
2023/06/07 00:51:43;;;;;;;6.63;4.17;;;;;;;18.60;63.91;101149.13;5013262;28;20212;-86
2023/06/07 00:54:10;;;;;;;6.23;4.40;;;;;;;18.57;64.00;101151.19;5012192;28;20232;-85
2023/06/07 00:56:37;;;;;;;5.40;4.17;;;;;;;18.56;64.10;101146.78;5008562;28;20208;-86
2023/06/07 00:59:04;;;;;;;5.40;3.90;;;;;;;18.52;64.05;101142.66;4999398;28;20197;-85
2023/06/07 01:01:33;;;;;;;5.73;4.00;;;;;;;18.48;63.97;101152.84;5012734;28;20696;-85
2023/06/07 01:04:01;;;;;;;6.90;4.60;;;;;;;18.43;64.10;101151.56;5017000;28;20277;-86
2023/06/07 01:06:29;;;;;;;5.17;3.97;;;;;;;18.38;64.00;101154.69;5006728;28;20219;-85
2023/06/07 01:08:56;;;;;;;5.83;4.00;;;;;;;18.33;64.00;101156.91;5005481;28;20619;-85
2023/06/07 01:11:24;;;;;;;7.17;3.80;;;;;;;18.29;64.08;101153.63;5005630;28;20705;-86
2023/06/07 01:13:51;;;;;;;7.03;4.17;;;;;;;18.25;64.01;101151.34;5012680;28;20268;-84
2023/06/07 01:16:18;;;;;;;5.13;4.30;;;;;;;18.22;64.31;101149.78;5012764;28;20272;-85
2023/06/07 01:18:46;;;;;;;4.53;3.73;;;;;;;18.18;64.41;101155.56;5019084;28;20224;-85
2023/06/07 01:21:19;;;;;;;9.97;4.43;;;;;;;18.15;64.55;101153.13;5031500;28;20202;-85
2023/06/07 01:23:49;;;;;;;6.83;4.00;;;;;;;18.10;64.74;101153.53;5002381;28;20233;-85
2023/06/07 01:26:16;;;;;;;6.57;3.80;;;;;;;18.06;64.99;101146.72;4999353;28;20194;-85
2023/06/07 01:28:44;;;;;;;7.07;4.07;;;;;;;18.02;65.04;101143.41;5018021;28;20236;-85
2023/06/07 01:31:13;;;;;;;5.23;4.07;;;;;;;17.97;65.12;101148.34;5013615;28;20673;-85
2023/06/07 01:33:40;;;;;;;8.33;4.63;;;;;;;17.92;65.35;101145.19;4996183;28;20229;-85
2023/06/07 01:36:08;;;;;;;7.63;4.67;;;;;;;17.87;65.59;101152.84;5019179;28;20216;-85
2023/06/07 01:38:35;;;;;;;8.13;4.57;;;;;;;17.82;65.71;101154.22;4994033;28;20209;-85
2023/06/07 01:41:04;;;;;;;9.57;4.30;;;;;;;17.79;65.91;101154.47;4992949;28;20704;-84
2023/06/07 01:43:31;;;;;;;7.00;4.30;;;;;;;17.74;65.96;101151.31;5011406;28;20234;-84
2023/06/07 01:45:59;;;;;;;7.43;5.10;;;;;;;17.71;66.34;101151.59;5012656;28;20210;-85
2023/06/07 01:48:26;;;;;;;7.17;4.50;;;;;;;17.67;66.54;101149.16;5019345;28;20230;-85
2023/06/07 01:50:53;;;;;;;7.80;4.40;;;;;;;17.66;66.33;101151.97;5009095;28;20726;-84
2023/06/07 01:53:19;;;;;;;8.17;4.67;;;;;;;17.61;66.69;101154.16;5011991;28;20244;-85
2023/06/07 01:55:46;;;;;;;9.00;4.73;;;;;;;17.58;66.84;101149.88;5011500;28;20220;-85
2023/06/07 01:58:27;;;;;;;7.00;4.17;;;;;;;17.54;66.82;101147.59;5017010;28;20195;-85
2023/06/07 02:01:02;;;;;;;5.13;4.23;;;;;;;17.51;67.22;101150.56;5015935;28;20194;-84
2023/06/07 02:03:35;;;;;;;7.77;4.50;;;;;;;17.48;67.17;101150.81;4996336;28;20236;-85
2023/06/07 02:06:04;;;;;;;7.93;5.00;;;;;;;17.45;67.72;101142.97;4999430;28;20830;-85
2023/06/07 02:08:34;;;;;;;7.70;4.80;;;;;;;17.42;68.20;101144.09;4998129;28;20588;-85
2023/06/07 02:11:03;;;;;;;7.50;4.77;;;;;;;17.40;68.77;101140.66;5002625;28;20207;-85
2023/06/07 02:13:35;;;;;;;8.30;4.90;;;;;;;17.39;69.09;101148.88;5012329;28;20228;-85
2023/06/07 02:16:04;;;;;;;10.30;5.17;;;;;;;17.35;69.53;101154.53;5001932;28;20668;-85
2023/06/07 02:18:31;;;;;;;11.50;5.00;;;;;;;17.32;69.57;101152.09;5012774;28;20625;-85
2023/06/07 02:20:57;;;;;;;8.37;5.37;;;;;;;17.26;69.92;101147.22;4993397;28;20200;-84
2023/06/07 02:23:24;;;;;;;6.23;4.90;;;;;;;17.23;70.19;101152.00;5000795;28;20242;-85
2023/06/07 02:25:51;;;;;;;9.13;5.27;;;;;;;17.18;70.49;101151.53;5004791;28;20209;-84
2023/06/07 02:28:17;;;;;;;7.67;5.47;;;;;;;17.15;70.71;101151.78;5010505;28;20663;-84
2023/06/07 02:30:45;;;;;;;6.97;4.60;;;;;;;17.11;71.06;101147.63;4998444;28;20215;-85
2023/06/07 02:33:13;;;;;;;6.83;4.90;;;;;;;17.07;71.10;101155.09;5010523;28;20231;-85
2023/06/07 02:35:40;;;;;;;7.10;5.07;;;;;;;17.04;71.34;101147.28;5010780;28;20210;-84
2023/06/07 02:38:06;;;;;;;8.67;5.03;;;;;;;17.00;71.90;101153.91;5013241;28;20219;-84
2023/06/07 02:40:33;;;;;;;9.10;5.67;;;;;;;16.96;72.05;101147.94;5011996;28;20332;-85
2023/06/07 02:43:00;;;;;;;11.20;5.40;;;;;;;16.92;72.52;101148.28;5011180;28;20241;-86
2023/06/07 02:45:26;;;;;;;9.63;4.90;;;;;;;16.89;73.01;101146.72;5003357;28;20219;-84
2023/06/07 02:47:54;;;;;;;7.87;4.60;;;;;;;16.87;73.33;101145.13;5000338;28;20212;-85
2023/06/07 02:50:22;;;;;;;8.83;5.40;;;;;;;16.86;73.22;101151.47;5002613;28;20220;-84
2023/06/07 02:52:49;;;;;;;6.33;5.07;;;;;;;16.85;73.47;101155.16;4991833;28;20226;-84
2023/06/07 02:55:15;;;;;;;6.87;5.10;;;;;;;16.80;73.45;101152.00;4992528;28;20222;-86
2023/06/07 02:57:42;;;;;;;10.57;5.70;;;;;;;16.77;73.53;101152.25;5000107;28;20211;-86
2023/06/07 03:00:11;;;;;;;7.03;5.40;;;;;;;16.73;74.02;101158.84;5001357;28;20251;-85
2023/06/07 03:02:38;;;;;;;9.20;5.70;;;;;;;16.70;74.21;101159.09;5032354;28;20232;-85
2023/06/07 03:05:07;;;;;;;8.13;4.93;;;;;;;16.66;74.40;101159.31;5028978;28;20674;-84
2023/06/07 03:07:35;;;;;;;8.97;5.50;;;;;;;16.64;74.58;101150.56;5013855;28;20663;-85
2023/06/07 03:10:01;;;;;;;6.57;4.80;;;;;;;16.59;74.80;101150.03;5014981;28;20213;-86
2023/06/07 03:12:27;;;;;;;10.33;5.53;;;;;;;16.59;74.87;101157.25;5015220;28;20204;-86
2023/06/07 03:14:54;;;;;;;8.93;5.80;;;;;;;16.57;75.07;101156.50;5015113;28;20699;-86
2023/06/07 03:17:21;;;;;;;11.57;5.80;;;;;;;16.54;75.10;101157.59;5014978;28;20256;-84
2023/06/07 03:19:48;;;;;;;11.20;5.97;;;;;;;16.51;75.38;101155.16;5005992;28;20286;-85
2023/06/07 03:22:17;;;;;;;8.60;5.60;;;;;;;16.46;75.12;101154.69;5022986;28;20239;-85
2023/06/07 03:24:44;;;;;;;8.50;5.70;;;;;;;16.42;75.01;101161.28;5004896;28;20237;-85
2023/06/07 03:27:11;;;;;;;9.30;5.77;;;;;;;16.37;75.17;101158.09;5006065;28;20211;-85
2023/06/07 03:29:38;;;;;;;8.10;5.40;;;;;;;16.31;75.38;101159.44;5007374;28;20701;-83
2023/06/07 03:32:07;;;;;;;12.77;5.73;;;;;;;16.27;75.55;101159.81;5013751;28;20691;-85
2023/06/07 03:34:33;;;;;;;8.93;6.13;;;;;;;16.22;75.53;101162.00;5011100;28;20604;-84
2023/06/07 03:37:00;;;;;;;10.37;6.70;;;;;;;16.17;75.87;101161.50;5009318;28;20679;-83
2023/06/07 03:39:28;;;;;;;9.43;5.77;;;;;;;16.12;76.01;101166.41;5003576;28;20204;-85
2023/06/07 03:41:54;;;;;;;8.27;5.57;;;;;;;16.08;76.06;101175.66;5015694;28;20213;-84
2023/06/07 03:44:21;;;;;;;12.57;5.97;;;;;;;16.02;75.93;101177.00;5010636;28;20252;-84
2023/06/07 03:46:47;;;;;;;10.73;6.30;;;;;;;16.00;76.16;101180.78;5014936;28;20811;-85
2023/06/07 03:49:14;;;;;;;15.47;6.30;;;;;;;15.96;76.61;101178.31;5001860;28;20225;-84
2023/06/07 03:51:42;;;;;;;8.77;6.27;;;;;;;15.94;76.96;101179.44;5033915;28;20212;-86
2023/06/07 03:54:09;;;;;;;9.67;6.63;;;;;;;15.92;77.61;101181.38;5033790;28;20226;-85
2023/06/07 03:56:37;;;;;;;7.77;5.97;;;;;;;15.90;78.16;101176.13;5033578;28;20210;-86
2023/06/07 03:59:03;;;;;;;11.80;6.47;;;;;;;15.86;78.42;101176.47;5020082;28;20207;-85
2023/06/07 04:01:30;;;;;;;8.57;6.03;;;;;;;15.82;79.08;101191.09;5008292;28;20204;-86
2023/06/07 04:03:56;;;;;;;10.33;6.13;;;;;;;15.78;79.63;101190.47;5000005;28;20238;-86
2023/06/07 04:06:24;;;;;;;10.87;6.37;;;;;;;15.74;80.23;101191.72;5014345;28;20209;-86
2023/06/07 04:08:51;;;;;;;14.93;7.03;;;;;;;15.73;80.55;101199.88;5003274;28;20835;-85
2023/06/07 04:11:18;;;;;;;12.03;6.13;;;;;;;15.68;81.09;101188.63;5005878;28;20302;-85
2023/06/07 04:13:46;;;;;;;10.60;6.50;;;;;;;15.63;81.52;101195.19;5013402;28;20228;-84
2023/06/07 04:16:12;;;;;;;12.13;6.87;;;;;;;15.59;82.03;101196.38;5013683;28;20218;-85
2023/06/07 04:18:39;;;;;;;13.70;7.27;;;;;;;15.56;82.18;101203.84;5013141;28;20215;-84
2023/06/07 04:21:06;;;;;;;10.40;6.57;;;;;;;15.53;82.78;101206.72;5014414;28;20696;-86
2023/06/07 04:23:33;;;;;;;9.70;7.37;;;;;;;15.50;83.45;101206.94;5013595;28;20277;-86
2023/06/07 04:26:00;;;;;;;12.33;6.90;;;;;;;15.49;83.87;101215.97;4994033;28;20211;-84
2023/06/07 04:28:27;;;;;;;10.13;6.13;;;;;;;15.47;84.08;101207.16;5002500;28;20212;-85
2023/06/07 04:30:57;;;;;;;9.33;6.80;;;;;;;15.44;84.51;101215.44;5013012;28;20219;-85
2023/06/07 04:33:23;;;;;;;14.13;7.53;;;;;;;15.42;84.71;101212.00;5013081;28;20237;-85
2023/06/07 04:35:51;;;;;;;13.43;7.47;;;;;;;15.41;85.01;101210.31;5012761;28;20207;-85
2023/06/07 04:38:21;;;;;;;11.97;7.67;;;;;;;15.38;85.43;101213.25;5013045;28;20239;-84
2023/06/07 04:40:48;;;;;;;12.47;7.20;;;;;;;15.38;85.72;101210.56;5014334;28;20276;-84
2023/06/07 04:43:17;;;;;;;12.83;7.20;;;;;;;15.36;86.17;101218.72;5015000;28;20580;-84
2023/06/07 04:45:54;;;;;;;11.10;6.37;;;;;;;15.37;86.76;101215.06;5013714;28;20212;-85
2023/06/07 04:48:24;;;;;;;14.83;6.97;;;;;;;15.36;86.84;101215.19;5013649;28;20191;-84
2023/06/07 04:50:51;;;;;;;11.03;6.90;;;;;;;15.31;87.10;101212.81;5011931;28;20683;-85
2023/06/07 04:53:19;;;;;;;11.57;6.87;;;;;;;15.27;87.54;101214.88;5012860;28;20234;-83
2023/06/07 04:55:47;;;;;;;13.70;8.03;;;;;;;15.25;87.91;101214.13;5014125;28;20223;-83
2023/06/07 04:58:16;;;;;;;14.90;7.73;;;;;;;15.24;88.36;101220.47;5015743;28;20611;-84
2023/06/07 05:00:43;;;;;;;11.43;7.33;;;;;;;15.24;88.57;101222.28;5016439;28;20212;-83
2023/06/07 05:03:13;;;;;;;10.10;7.10;;;;;;;15.23;88.68;101232.16;5016976;28;20230;-83
2023/06/07 05:05:41;;;;;;;15.00;7.10;;;;;;;15.22;88.97;101219.75;5016353;28;20274;-84
2023/06/07 05:08:07;;;;;;;8.93;7.00;;;;;;;15.21;89.13;101222.53;5015379;28;20212;-82
2023/06/07 05:10:34;;;;;;;10.53;7.50;;;;;;;15.19;89.23;101219.09;5015416;28;20215;-83
2023/06/07 05:13:00;;;;;;;10.87;7.60;;;;;;;15.17;89.99;101218.38;5014811;28;20222;-85
2023/06/07 05:15:27;;;;;;;10.73;6.60;;;;;;;15.14;89.41;101226.63;5014492;28;20241;-84
2023/06/07 05:17:54;;;;;;;10.80;6.57;;;;;;;15.11;90.30;101225.03;5013356;28;20215;-85
2023/06/07 05:20:24;;;;;;;12.83;6.97;;;;;;;15.09;90.28;101220.72;5006929;28;20215;-84
2023/06/07 05:22:53;;;;;;;11.30;7.03;;;;;;;15.07;90.90;101226.22;4994289;28;20608;-84
2023/06/07 05:25:20;;;;;;;14.10;6.67;;;;;;;15.04;91.12;101214.88;4993660;28;20249;-83
2023/06/07 05:27:49;;;;;;;13.70;7.53;;;;;;;15.02;91.38;101219.50;4993762;28;20830;-83
2023/06/07 05:30:16;;;;;;;14.60;7.13;;;;;;;15.00;91.28;101218.75;4992108;28;20291;-83
2023/06/07 05:32:42;;;;;;;13.33;8.33;;;;;;;14.98;91.47;101210.81;4995068;28;20315;-83
2023/06/07 05:35:09;;;;;;;13.30;7.70;;;;;;;14.98;91.84;101210.81;5007773;28;20199;-85
2023/06/07 05:37:36;;;;;;;11.07;7.83;;;;;;;14.97;92.30;101222.50;5001160;28;20595;-84
2023/06/07 05:40:07;;;;;;;12.07;7.63;;;;;;;14.97;92.17;101216.28;5014755;28;20228;-83
2023/06/07 05:42:38;;;;;;;14.70;8.60;;;;;;;14.99;92.66;101222.38;5012195;28;20278;-84
2023/06/07 05:45:06;;;;;;;11.37;7.70;;;;;;;14.99;92.34;101220.56;5013911;28;20227;-83
2023/06/07 05:47:32;;;;;;;12.17;7.67;;;;;;;14.99;92.91;101214.34;5012365;28;20202;-83
2023/06/07 05:49:59;;;;;;;12.17;8.00;;;;;;;14.97;92.84;101208.22;5007943;28;20206;-83
2023/06/07 05:52:25;;;;;;;12.30;7.60;;;;;;;14.96;92.37;101217.25;5012169;28;20234;-83
2023/06/07 05:54:54;;;;;;;12.80;7.93;;;;;;;14.94;92.82;101215.53;4998664;28;20198;-83
2023/06/07 05:57:22;;;;;;;19.07;8.73;;;;;;;14.94;92.71;101220.88;5000618;28;20214;-83
2023/06/07 05:59:48;;;;;;;12.37;8.17;;;;;;;14.94;93.00;101218.22;5005966;28;20203;-83
2023/06/07 06:02:16;;;;;;;9.07;7.53;;;;;;;14.97;93.26;101218.97;5006739;28;20202;-84
2023/06/07 06:04:43;;;;;;;14.47;8.33;;;;;;;14.99;93.84;101227.75;5008785;28;20227;-84
2023/06/07 06:07:10;;;;;;;10.30;7.60;;;;;;;14.99;94.09;101235.81;5009140;28;20214;-84
2023/06/07 06:09:36;;;;;;;16.87;8.87;;;;;;;14.99;94.23;101233.97;5012307;28;20280;-83
2023/06/07 06:12:03;;;;;;;11.63;8.27;;;;;;;15.01;94.50;101237.41;5009223;28;20200;-83
2023/06/07 06:14:31;;;;;;;12.77;7.90;;;;;;;15.05;94.99;101232.69;5020396;28;20268;-83
2023/06/07 06:16:58;;;;;;;13.97;8.27;;;;;;;15.07;94.96;101236.94;5015362;28;20212;-85
2023/06/07 06:19:25;;;;;;;14.63;8.23;;;;;;;15.11;95.09;101242.94;5016342;28;20230;-84
2023/06/07 06:21:51;;;;;;;14.67;8.73;;;;;;;15.14;95.21;101240.91;5005938;28;20211;-83
2023/06/07 06:24:18;;;;;;;17.83;8.53;;;;;;;15.17;95.11;101243.38;5004726;28;20239;-83
2023/06/07 06:26:44;;;;;;;10.63;8.03;;;;;;;15.19;94.96;101232.53;5002444;28;20207;-83
2023/06/07 06:29:30;;;;;;;11.97;8.73;;;;;;;15.22;94.95;101243.91;4994509;28;20215;-82
2023/06/07 06:31:58;;;;;;;14.90;9.07;;;;;;;15.28;95.20;101237.19;5015353;28;20282;-83
2023/06/07 06:34:24;;;;;;;16.43;9.17;;;;;;;15.34;95.59;101249.31;5016750;28;20624;-83
2023/06/07 06:36:51;;;;;;;15.00;8.67;;;;;;;15.37;95.32;101249.09;5006989;28;20208;-83
2023/06/07 06:39:17;;;;;;;15.80;9.67;;;;;;;15.39;95.16;101247.16;5018319;28;20199;-83
2023/06/07 06:41:44;;;;;;;11.03;8.10;;;;;;;15.42;94.95;101252.28;5026409;28;20713;-83
2023/06/07 06:44:11;;;;;;;13.93;8.80;;;;;;;15.44;95.20;101255.72;5011410;28;20257;-83
2023/06/07 06:46:37;;;;;;;15.43;8.67;;;;;;;15.46;94.94;101249.25;5009664;28;20222;-83
2023/06/07 06:49:05;;;;;;;15.83;9.00;;;;;;;15.51;94.78;101251.63;5003371;28;20690;-83
2023/06/07 06:51:32;;;;;;;15.50;9.20;;;;;;;15.54;94.49;101252.25;5001841;28;20215;-83
2023/06/07 06:53:58;;;;;;;12.60;8.60;;;;;;;15.58;94.49;101250.22;5008041;28;20231;-83
2023/06/07 06:56:25;;;;;;;14.17;8.57;;;;;;;15.65;94.44;101250.59;5002833;28;20207;-83
2023/06/07 06:58:52;;;;;;;10.90;8.17;;;;;;;15.75;94.84;101255.19;5003763;28;20579;-84
2023/06/07 07:01:18;;;;;;;12.90;8.53;;;;;;;15.86;94.98;101263.28;5005567;28;20244;-84
2023/06/07 07:03:45;;;;;;;13.60;9.07;;;;;;;16.01;94.88;101265.78;4996567;28;20235;-84
2023/06/07 07:06:13;;;;;;;14.77;8.93;;;;;;;16.12;94.65;101252.38;5012603;28;20204;-83
2023/06/07 07:08:39;;;;;;;12.77;8.37;;;;;;;16.20;94.07;101253.50;5010591;28;20596;-82
2023/06/07 07:11:06;;;;;;;12.17;9.20;;;;;;;16.28;93.04;101253.78;5010216;28;20736;-83
2023/06/07 07:13:32;;;;;;;13.63;9.10;;;;;;;16.34;92.67;101255.09;5006736;28;20574;-83
2023/06/07 07:15:59;;;;;;;12.30;9.37;;;;;;;16.42;92.18;101250.00;5007558;28;20245;-83
2023/06/07 07:18:25;;;;;;;16.97;9.70;;;;;;;16.49;91.79;101250.34;5015609;28;20216;-83
2023/06/07 07:20:52;;;;;;;13.20;9.20;;;;;;;16.54;90.95;101251.72;5001276;28;20212;-83
2023/06/07 07:23:20;;;;;;;12.10;8.83;;;;;;;16.62;90.55;101257.38;5009296;28;20229;-83
2023/06/07 07:25:46;;;;;;;11.87;8.93;;;;;;;16.66;89.89;101252.59;4999702;28;20226;-83
2023/06/07 07:28:13;;;;;;;13.37;8.67;;;;;;;16.72;89.40;101248.56;5007178;28;20213;-83
2023/06/07 07:30:39;;;;;;;13.23;9.33;;;;;;;16.79;88.87;101255.19;5000551;28;20217;-83
2023/06/07 07:33:06;;;;;;;15.80;9.83;;;;;;;16.84;88.56;101258.38;5001099;28;20227;-84
2023/06/07 07:35:32;;;;;;;13.17;8.90;;;;;;;16.89;88.06;101253.47;5015972;28;20216;-83
2023/06/07 07:38:00;;;;;;;16.97;9.93;;;;;;;16.97;87.85;101269.88;5007109;28;20221;-83
2023/06/07 07:40:28;;;;;;;14.53;9.27;;;;;;;17.05;87.87;101259.31;5010282;28;20671;-84
2023/06/07 07:42:54;;;;;;;16.83;10.03;;;;;;;17.15;87.49;101257.63;5006730;28;20235;-82
2023/06/07 07:45:21;;;;;;;14.20;9.90;;;;;;;17.26;87.09;101268.34;5005470;28;20241;-83
2023/06/07 07:47:47;;;;;;;12.57;8.60;;;;;;;17.33;86.37;101257.94;5008485;28;20218;-82
2023/06/07 07:50:16;;;;;;;16.57;10.33;;;;;;;17.40;85.66;101266.34;5010155;28;21005;-83
2023/06/07 07:52:42;;;;;;;15.40;9.50;;;;;;;17.43;84.91;101263.41;5001254;28;20226;-83
2023/06/07 07:55:10;;;;;;;14.03;9.63;;;;;;;17.47;84.99;101268.44;5003079;28;20205;-83
2023/06/07 07:57:38;;;;;;;13.97;8.97;;;;;;;17.57;85.76;101269.38;5013650;28;20219;-84
2023/06/07 08:00:06;;;;;;;13.27;10.00;;;;;;;17.68;85.40;101276.63;5006973;28;20214;-83
2023/06/07 08:02:35;;;;;;;15.33;9.70;;;;;;;17.79;84.73;101273.00;5012130;28;20232;-83
2023/06/07 08:05:03;;;;;;;15.20;10.67;;;;;;;17.86;83.75;101269.69;5021768;28;20712;-84
2023/06/07 08:07:30;;;;;;;16.50;9.83;;;;;;;17.97;83.18;101275.00;5009384;28;20267;-84
2023/06/07 08:09:56;;;;;;;14.17;10.37;;;;;;;18.07;82.56;101279.66;5012548;28;20656;-84
2023/06/07 08:12:23;;;;;;;13.50;10.63;;;;;;;18.16;82.09;101266.22;5010141;28;20208;-84
2023/06/07 08:14:51;;;;;;;15.10;10.10;;;;;;;18.31;82.66;101266.75;5007984;28;20213;-84
2023/06/07 08:17:18;;;;;;;14.07;9.07;;;;;;;18.47;82.21;101268.97;5006820;28;20409;-84
2023/06/07 08:19:44;;;;;;;20.37;11.03;;;;;;;18.60;81.66;101265.13;5000674;28;20300;-84
2023/06/07 08:22:11;;;;;;;12.13;9.83;;;;;;;18.71;80.98;101267.72;5019940;28;20280;-84
2023/06/07 08:24:37;;;;;;;13.83;9.50;;;;;;;18.81;80.10;101265.06;5007354;28;20234;-85
2023/06/07 08:27:05;;;;;;;13.03;9.70;;;;;;;18.93;79.95;101257.75;5009793;28;20221;-84
2023/06/07 08:29:31;;;;;;;15.70;10.27;;;;;;;19.06;79.73;101270.00;5010097;28;20244;-85
2023/06/07 08:32:00;;;;;;;14.40;10.10;;;;;;;19.19;78.83;101269.75;5002150;28;20581;-84
2023/06/07 08:34:28;;;;;;;15.77;11.40;;;;;;;19.27;77.58;101260.97;5008034;28;20253;-84
2023/06/07 08:36:55;;;;;;;13.83;9.83;;;;;;;19.33;76.72;101269.41;5001574;28;20630;-84
2023/06/07 08:39:22;;;;;;;12.60;10.53;;;;;;;19.39;76.61;101260.72;5001150;28;20272;-85
2023/06/07 08:41:49;;;;;;;15.93;11.37;;;;;;;19.46;76.34;101262.88;5008106;28;20214;-85
2023/06/07 08:44:16;;;;;;;13.47;10.37;;;;;;;19.55;76.54;101264.75;4999782;28;20231;-85
2023/06/07 08:46:43;;;;;;;17.20;10.80;;;;;;;19.63;76.62;101267.63;5006025;28;20212;-85
2023/06/07 08:49:11;;;;;;;16.33;10.93;;;;;;;19.72;75.99;101266.75;5014396;28;20199;-85
2023/06/07 08:51:42;;;;;;;13.47;11.20;;;;;;;19.74;74.75;101262.94;5011528;28;20216;-84
2023/06/07 08:54:11;;;;;;;15.73;10.77;;;;;;;19.79;75.02;101273.31;5005746;28;20991;-84
2023/06/07 08:56:38;;;;;;;15.23;12.00;;;;;;;19.83;74.53;101269.34;5005011;28;20215;-85
2023/06/07 08:59:05;;;;;;;16.73;11.97;;;;;;;19.84;73.99;101271.06;5009652;28;20235;-85
2023/06/07 09:01:34;;;;;;;14.23;11.47;;;;;;;19.89;74.22;101271.47;5016914;28;20216;-85
2023/06/07 09:04:01;;;;;;;16.07;11.50;;;;;;;19.96;74.96;101279.88;5008043;28;20234;-85
2023/06/07 09:06:29;;;;;;;15.27;12.50;;;;;;;20.03;74.54;101281.03;5012411;28;20219;-84
2023/06/07 09:08:56;;;;;;;14.37;11.07;;;;;;;20.08;74.14;101270.59;5013003;28;20585;-85
2023/06/07 09:11:23;;;;;;;20.77;11.20;;;;;;;20.09;73.38;101272.31;5007269;28;20209;-85
2023/06/07 09:13:49;;;;;;;17.37;10.93;;;;;;;20.15;73.59;101274.44;5007484;28;20243;-85
2023/06/07 09:16:18;;;;;;;15.03;11.47;;;;;;;20.24;73.32;101284.44;5010674;28;20201;-84
2023/06/07 09:18:45;;;;;;;13.87;11.23;;;;;;;20.30;72.40;101275.72;5010469;28;20206;-85
2023/06/07 09:21:20;;;;;;;14.73;10.87;;;;;;;20.34;71.92;101279.00;5007612;28;20574;-86
2023/06/07 09:23:48;;;;;;;18.75;11.50;;;;;;;20.39;71.47;101272.19;5007487;28;20733;-85
2023/06/07 09:26:14;;;;;;;17.73;11.30;;;;;;;20.42;71.19;101274.56;5006864;28;20232;-85
2023/06/07 09:28:41;;;;;;;16.57;11.97;;;;;;;20.45;70.95;101265.31;5006501;28;20203;-85
2023/06/07 09:31:08;;;;;;;16.55;11.32;;;;;;;20.49;71.07;101264.03;5012859;28;20216;-85
2023/06/07 09:33:35;;;;;;;15.27;11.77;;;;;;;20.56;70.60;101276.00;5000314;28;20222;-85
2023/06/07 09:36:06;;;;;;;15.93;11.30;;;;;;;20.59;70.52;101267.59;5005561;28;20662;-85
2023/06/07 09:38:33;;;;;;;14.43;11.20;;;;;;;20.62;70.23;101266.41;5008129;28;20206;-84
2023/06/07 09:41:03;;;;;;;14.65;10.98;;;;;;;20.65;69.79;101266.13;5010746;28;20209;-85
2023/06/07 09:43:41;;;;;;;16.40;11.60;;;;;;;20.65;69.50;101269.69;5005433;28;20703;-85
2023/06/07 09:46:08;;;;;;;14.20;11.25;;;;;;;20.68;69.43;101269.38;5005138;28;20218;-85
2023/06/07 09:48:44;;;;;;;15.18;11.50;;;;;;;20.73;69.27;101268.97;5005603;28;20214;-85
2023/06/07 09:51:11;;;;;;;18.08;11.57;;;;;;;20.76;68.84;101265.97;5007475;28;20209;-85
2023/06/07 09:53:51;;;;;;;16.00;11.57;;;;;;;20.85;69.21;101277.75;4997312;28;20273;-85
2023/06/07 09:56:20;;;;;;;16.23;11.38;;;;;;;20.92;69.24;101271.59;5004295;28;20218;-85
2023/06/07 09:58:49;;;;;;;17.90;11.35;;;;;;;21.01;69.23;101273.38;4997455;28;20294;-85
2023/06/07 10:01:16;;;;;;;17.50;11.48;;;;;;;21.09;68.53;101275.38;5006529;28;20675;-85
2023/06/07 10:03:46;;;;;;;17.40;11.55;;;;;;;21.15;67.92;101278.31;5008454;28;20230;-85
2023/06/07 10:06:15;;;;;;;19.02;11.02;;;;;;;21.18;67.82;101270.88;5006990;28;20226;-85
2023/06/07 10:08:44;;;;;;;19.08;10.75;;;;;;;21.25;67.64;101274.75;5007701;28;20230;-85
2023/06/07 10:11:12;;;;;;;17.77;11.57;;;;;;;21.30;67.76;101267.88;5008684;28;20213;-85
2023/06/07 10:13:40;;;;;;;17.73;11.52;;;;;;;21.34;67.28;101274.66;5013387;28;20230;-85
2023/06/07 10:16:10;;;;;;;15.32;11.20;;;;;;;21.42;67.88;101271.22;5005340;28;20214;-86
2023/06/07 10:18:42;;;;;;;13.38;10.60;;;;;;;21.50;66.95;101262.34;5002462;28;20261;-85
2023/06/07 10:21:12;;;;;;;17.60;11.25;;;;;;;21.51;66.22;101272.13;5007897;28;20203;-85
2023/06/07 10:23:46;;;;;;;15.45;11.20;;;;;;;21.57;66.66;101271.53;4997055;28;20226;-86
2023/06/07 10:26:22;;;;;;;15.30;10.70;;;;;;;21.63;66.28;101255.53;5009622;28;20214;-85
2023/06/07 10:28:53;;;;;;;16.45;11.07;;;;;;;21.67;65.84;101256.94;5003636;28;20217;-85
2023/06/07 10:31:24;;;;;;;11.88;10.60;;;;;;;21.70;65.31;101259.31;5007975;28;20218;-85
2023/06/07 10:33:53;;;;;;;16.88;11.98;;;;;;;21.74;65.04;101254.44;5003136;28;21002;-85
2023/06/07 10:36:23;;;;;;;16.52;11.27;;;;;;;21.79;64.76;101254.84;5015113;28;20221;-86
2023/06/07 10:38:51;;;;;;;14.85;11.02;;;;;;;21.83;64.43;101262.50;5005633;28;20219;-86
2023/06/07 10:41:18;;;;;;;18.38;11.50;;;;;;;21.86;64.24;101257.75;4998821;28;20213;-85
2023/06/07 10:43:46;;;;;;;17.65;10.80;;;;;;;21.90;64.32;101254.59;4994694;28;20318;-85
2023/06/07 10:46:23;;;;;;;17.67;11.18;;;;;;;21.94;63.98;101253.28;5009407;28;20219;-85
2023/06/07 10:48:50;;;;;;;14.00;11.02;;;;;;;22.00;63.73;101255.41;5007486;28;20627;-86
2023/06/07 10:51:17;;;;;;;16.83;11.65;;;;;;;22.06;63.51;101256.63;4997569;28;20799;-85
2023/06/07 10:53:51;;;;;;;14.05;11.00;;;;;;;22.12;63.22;101261.41;5003830;28;20229;-85
2023/06/07 10:56:31;;;;;;;15.00;11.00;;;;;;;22.19;63.29;101254.38;5003118;28;20205;-85
2023/06/07 10:58:59;;;;;;;13.40;10.95;;;;;;;22.28;62.54;101247.13;4998990;28;20249;-85
2023/06/07 11:01:27;;;;;;;13.52;10.48;;;;;;;22.32;61.33;101253.94;5015188;28;20203;-86
2023/06/07 11:03:54;;;;;;;13.10;10.65;;;;;;;22.29;60.48;101255.13;4997663;28;20231;-85
2023/06/07 11:06:21;;;;;;;14.35;11.07;;;;;;;22.32;60.15;101256.66;5005689;28;20796;-85
2023/06/07 11:08:47;;;;;;;16.50;11.98;;;;;;;22.36;59.95;101255.34;5001479;28;20206;-85
2023/06/07 11:11:53;;;;;;;16.98;11.57;;;;;;;22.43;60.08;101251.81;5005491;28;20222;-85
2023/06/07 11:14:20;;;;;;;15.82;11.68;;;;;;;22.48;60.21;101257.63;5010714;28;20261;-87
2023/06/07 11:16:47;;;;;;;12.50;11.20;;;;;;;22.52;60.13;101252.75;5010478;28;20210;-86
2023/06/07 11:19:20;;;;;;;15.35;11.52;;;;;;;22.58;59.99;101248.50;5009341;28;20805;-86